KEVW/EVW METAR and TAF weather

Enter ICAO airport designator
Station Type Date Time Source
KEVW METAR 2020/12/06 00:53 UTC NOAA

KEVW 060053Z AUTO 07008KT 10SM CLR 01/M13 A3041 RMK AO2 SLP319 T00111128


Station Type Date Time Source
KEVW Decoded METAR 2020/12/06 00:53 UTC NOAA

EVANSTON-UINTA COUNTY FIELD, WY, United States (KEVW) 41-16N 111-02W 2177M
Dec 05, 2020 - 07:53 PM EST / 2020.12.06 0053 UTC
Wind: from the ENE (070 degrees) at 9 MPH (8 KT):0
Visibility: 10 mile(s):0
Sky conditions: clear
Temperature: 34.0 F (1.1 C)
Windchill: 26 F (-3 C):1
Dew Point: 9.0 F (-12.8 C)
Relative Humidity: 34%
Pressure (altimeter): 30.41 in. Hg (1029 hPa)
ob: KEVW 060053Z AUTO 07008KT 10SM CLR 01/M13 A3041 RMK AO2 SLP319 T00111128
cycle: 1

Station Type Date Time Source
KEVW TAF 2020/12/05 18:42 UTC NOAA

TAF KEVW 051736Z 0518/0618 08007KT P6SM SKC
FM060300 18006KT P6SM SKC

Example: see airport list